Aeroporto :
LOGIN :

Iscrizione | Disclaimer

   EN    FR    IT 

 










Sommario :    VFR   VFR Marginale   IFR   IFR Intensivo   IFR Molto Intensivo
Visibilità : 
Base nubi : 
>= 8 km
>= 3000ft
5 / 8 km
1000 / 3000 ft
1500m / 5 km
500 / 1000 ft
800 / 1500m
200 / 500 ft
< 800m
< 200 ft
Simboli :   Temporali  Nebbia  Neve Forte  Precipitazioni Forti  Vento > 20 kt
SIGMETs :   Varie  Temporali  Ghiacco  Turbolenza  Onda orograficha  Ceneri Vulcaniche






- Altitudine del aeroporto : 0 ft


ENSL - Sleipner A Platform

ULTIMO METAR :
  • 232020Z AUTO 31018KT 9999NDV FEW018/// 06/03 Q1008 W04/S5

METARs OBSOLETI :
  • 231950Z AUTO 32018KT 9999NDV BKN044/// 05/02 Q1008 W04/S5
  • 231920Z AUTO 34021KT 9999NDV FEW011/// 05/03 Q1007 W03/S5
  • 231850Z AUTO 34025KT 9999NDV -SHRA SCT019/// 05/02 Q1006 W03/S5
  • 231820Z AUTO 34023KT 9999NDV -SHRA BKN014/// 06/03 Q1005 W04/S5
  • 231750Z AUTO 32021KT 9999NDV FEW016/// 06/03 Q1004 W04/S5

Previsioni scadute.



MetMap, La meteo Aeronautica in un colpo d'occhio ! - Copyright ORBIFLY Dicembre 2007 - Disclaimer

ORBIFLY MET'MAP TEAM :

Programmazione e sviluppo : Alexandra Zaïnal
Concezione : Baudouin d'Aumeries
Aiuto per la programmazione : Marc-Olivier Méhu
Supporto tecnico e logistico : Manuel Goepfert
Aiuto per la traduzione : Arnaldo La Scala

Contatto : metmap@orbifly.com




FONTI E CREDITI :

   NOAA